sensor_id;sensor_type;location;lat;lon;timestamp;temperature;humidity
23385;DHT22;11865;45.394;10.978;2024-02-15T00:01:01;6.80;99.90
23385;DHT22;11865;45.394;10.978;2024-02-15T00:03:28;7.00;99.90
23385;DHT22;11865;45.394;10.978;2024-02-15T00:05:57;7.20;99.90
23385;DHT22;11865;45.394;10.978;2024-02-15T00:08:25;7.20;99.90
23385;DHT22;11865;45.394;10.978;2024-02-15T00:10:54;6.90;99.90
23385;DHT22;11865;45.394;10.978;2024-02-15T00:13:22;6.50;99.90
23385;DHT22;11865;45.394;10.978;2024-02-15T00:15:50;6.20;99.90
23385;DHT22;11865;45.394;10.978;2024-02-15T00:18:17;6.00;99.90
23385;DHT22;11865;45.394;10.978;2024-02-15T00:20:46;5.90;99.90
23385;DHT22;11865;45.394;10.978;2024-02-15T00:23:13;6.00;99.90
23385;DHT22;11865;45.394;10.978;2024-02-15T00:25:44;6.50;99.90
23385;DHT22;11865;45.394;10.978;2024-02-15T00:28:12;6.90;99.90
23385;DHT22;11865;45.394;10.978;2024-02-15T00:30:40;6.20;99.90
23385;DHT22;11865;45.394;10.978;2024-02-15T00:33:08;5.90;99.90
23385;DHT22;11865;45.394;10.978;2024-02-15T00:35:36;5.60;99.90
23385;DHT22;11865;45.394;10.978;2024-02-15T00:38:05;5.50;99.90
23385;DHT22;11865;45.394;10.978;2024-02-15T00:40:34;5.60;99.90
23385;DHT22;11865;45.394;10.978;2024-02-15T00:43:02;5.80;99.90
23385;DHT22;11865;45.394;10.978;2024-02-15T00:45:30;5.70;99.90
23385;DHT22;11865;45.394;10.978;2024-02-15T00:47:57;6.10;99.90
23385;DHT22;11865;45.394;10.978;2024-02-15T00:50:25;6.70;99.90
23385;DHT22;11865;45.394;10.978;2024-02-15T00:52:53;6.70;99.90
23385;DHT22;11865;45.394;10.978;2024-02-15T00:55:21;6.00;99.90
23385;DHT22;11865;45.394;10.978;2024-02-15T00:57:48;5.60;99.90
23385;DHT22;11865;45.394;10.978;2024-02-15T01:00:16;5.50;99.90
23385;DHT22;11865;45.394;10.978;2024-02-15T01:02:44;5.30;99.90
23385;DHT22;11865;45.394;10.978;2024-02-15T01:05:12;5.40;99.90
23385;DHT22;11865;45.394;10.978;2024-02-15T01:07:42;5.30;99.90
23385;DHT22;11865;45.394;10.978;2024-02-15T01:10:10;5.50;99.90
23385;DHT22;11865;45.394;10.978;2024-02-15T01:12:38;5.40;99.90
23385;DHT22;11865;45.394;10.978;2024-02-15T01:15:07;5.80;99.90
23385;DHT22;11865;45.394;10.978;2024-02-15T01:17:35;6.60;99.90
23385;DHT22;11865;45.394;10.978;2024-02-15T01:20:03;6.70;99.90
23385;DHT22;11865;45.394;10.978;2024-02-15T01:22:31;6.80;99.90
23385;DHT22;11865;45.394;10.978;2024-02-15T01:24:58;6.90;99.90
23385;DHT22;11865;45.394;10.978;2024-02-15T01:27:26;7.00;99.90
23385;DHT22;11865;45.394;10.978;2024-02-15T01:29:57;6.90;99.90
23385;DHT22;11865;45.394;10.978;2024-02-15T01:32:25;6.30;99.90
23385;DHT22;11865;45.394;10.978;2024-02-15T01:34:55;5.90;99.90
23385;DHT22;11865;45.394;10.978;2024-02-15T01:37:23;6.00;99.90
23385;DHT22;11865;45.394;10.978;2024-02-15T01:39:51;5.80;99.90
23385;DHT22;11865;45.394;10.978;2024-02-15T01:42:19;5.70;99.90
23385;DHT22;11865;45.394;10.978;2024-02-15T01:44:46;5.70;99.90
23385;DHT22;11865;45.394;10.978;2024-02-15T01:47:18;6.30;99.90
23385;DHT22;11865;45.394;10.978;2024-02-15T01:49:52;6.50;99.90
23385;DHT22;11865;45.394;10.978;2024-02-15T01:52:21;6.60;99.90
23385;DHT22;11865;45.394;10.978;2024-02-15T01:54:51;6.30;99.90
23385;DHT22;11865;45.394;10.978;2024-02-15T01:57:20;6.00;99.90
23385;DHT22;11865;45.394;10.978;2024-02-15T01:59:53;5.70;99.90
23385;DHT22;11865;45.394;10.978;2024-02-15T02:02:22;5.60;99.90
23385;DHT22;11865;45.394;10.978;2024-02-15T02:04:52;5.30;99.90
23385;DHT22;11865;45.394;10.978;2024-02-15T02:07:20;5.20;99.90
23385;DHT22;11865;45.394;10.978;2024-02-15T02:09:47;5.30;99.90
23385;DHT22;11865;45.394;10.978;2024-02-15T02:12:16;5.10;99.90
23385;DHT22;11865;45.394;10.978;2024-02-15T02:14:45;5.20;99.90
23385;DHT22;11865;45.394;10.978;2024-02-15T02:17:13;5.10;99.90
23385;DHT22;11865;45.394;10.978;2024-02-15T02:19:44;4.90;99.90
23385;DHT22;11865;45.394;10.978;2024-02-15T02:22:12;5.00;99.90
23385;DHT22;11865;45.394;10.978;2024-02-15T02:27:21;4.90;99.90
23385;DHT22;11865;45.394;10.978;2024-02-15T02:29:49;4.80;99.90
23385;DHT22;11865;45.394;10.978;2024-02-15T02:32:17;4.90;99.90
23385;DHT22;11865;45.394;10.978;2024-02-15T02:34:45;4.90;99.90
23385;DHT22;11865;45.394;10.978;2024-02-15T02:37:13;4.90;99.90
23385;DHT22;11865;45.394;10.978;2024-02-15T02:39:42;5.10;99.90
23385;DHT22;11865;45.394;10.978;2024-02-15T02:42:10;5.00;99.90
23385;DHT22;11865;45.394;10.978;2024-02-15T02:44:38;4.80;99.90
23385;DHT22;11865;45.394;10.978;2024-02-15T02:47:06;5.00;99.90
23385;DHT22;11865;45.394;10.978;2024-02-15T02:49:37;5.20;99.90
23385;DHT22;11865;45.394;10.978;2024-02-15T02:52:06;5.30;99.90
23385;DHT22;11865;45.394;10.978;2024-02-15T02:54:33;5.50;99.90
23385;DHT22;11865;45.394;10.978;2024-02-15T02:57:02;5.20;99.90
23385;DHT22;11865;45.394;10.978;2024-02-15T02:59:34;5.10;99.90
23385;DHT22;11865;45.394;10.978;2024-02-15T03:02:03;5.10;99.90
23385;DHT22;11865;45.394;10.978;2024-02-15T03:04:32;5.00;99.90
23385;DHT22;11865;45.394;10.978;2024-02-15T03:07:00;5.00;99.90
23385;DHT22;11865;45.394;10.978;2024-02-15T03:09:28;4.90;99.90
23385;DHT22;11865;45.394;10.978;2024-02-15T03:11:56;4.40;99.90
23385;DHT22;11865;45.394;10.978;2024-02-15T03:14:24;4.30;99.90
23385;DHT22;11865;45.394;10.978;2024-02-15T03:16:52;4.30;99.90
23385;DHT22;11865;45.394;10.978;2024-02-15T03:19:22;4.20;99.90
23385;DHT22;11865;45.394;10.978;2024-02-15T03:21:50;4.10;99.90
23385;DHT22;11865;45.394;10.978;2024-02-15T03:24:20;4.10;99.90
23385;DHT22;11865;45.394;10.978;2024-02-15T03:26:48;4.00;99.90
23385;DHT22;11865;45.394;10.978;2024-02-15T03:29:15;4.20;99.90
23385;DHT22;11865;45.394;10.978;2024-02-15T03:31:43;4.50;99.90
23385;DHT22;11865;45.394;10.978;2024-02-15T03:34:10;4.40;99.90
23385;DHT22;11865;45.394;10.978;2024-02-15T03:36:38;4.30;99.90
23385;DHT22;11865;45.394;10.978;2024-02-15T03:39:06;4.20;99.90
23385;DHT22;11865;45.394;10.978;2024-02-15T03:41:34;4.00;99.90
23385;DHT22;11865;45.394;10.978;2024-02-15T03:44:01;4.00;99.90
23385;DHT22;11865;45.394;10.978;2024-02-15T03:46:29;3.80;99.90
23385;DHT22;11865;45.394;10.978;2024-02-15T03:48:57;3.90;99.90
23385;DHT22;11865;45.394;10.978;2024-02-15T03:51:25;4.10;99.90
23385;DHT22;11865;45.394;10.978;2024-02-15T03:53:53;4.20;99.90
23385;DHT22;11865;45.394;10.978;2024-02-15T03:56:21;4.20;99.90
23385;DHT22;11865;45.394;10.978;2024-02-15T03:58:49;3.90;99.90
23385;DHT22;11865;45.394;10.978;2024-02-15T04:01:17;3.80;99.90
23385;DHT22;11865;45.394;10.978;2024-02-15T04:03:45;4.30;99.90
23385;DHT22;11865;45.394;10.978;2024-02-15T04:06:15;4.40;99.90
23385;DHT22;11865;45.394;10.978;2024-02-15T04:08:43;4.10;99.90
23385;DHT22;11865;45.394;10.978;2024-02-15T04:11:11;4.10;99.90
23385;DHT22;11865;45.394;10.978;2024-02-15T04:13:39;4.30;99.90
23385;DHT22;11865;45.394;10.978;2024-02-15T04:16:06;4.20;99.90
23385;DHT22;11865;45.394;10.978;2024-02-15T04:18:34;4.20;99.90
23385;DHT22;11865;45.394;10.978;2024-02-15T04:21:02;4.00;99.90
23385;DHT22;11865;45.394;10.978;2024-02-15T04:23:30;3.90;99.90
23385;DHT22;11865;45.394;10.978;2024-02-15T04:25:58;3.90;99.90
23385;DHT22;11865;45.394;10.978;2024-02-15T04:28:27;3.90;99.90
23385;DHT22;11865;45.394;10.978;2024-02-15T04:30:54;3.70;99.90
23385;DHT22;11865;45.394;10.978;2024-02-15T04:33:22;3.60;99.90
23385;DHT22;11865;45.394;10.978;2024-02-15T04:35:50;3.70;99.90
23385;DHT22;11865;45.394;10.978;2024-02-15T04:38:19;3.80;99.90
23385;DHT22;11865;45.394;10.978;2024-02-15T04:40:46;4.20;99.90
23385;DHT22;11865;45.394;10.978;2024-02-15T04:43:14;4.40;99.90
23385;DHT22;11865;45.394;10.978;2024-02-15T04:45:43;4.20;99.90
23385;DHT22;11865;45.394;10.978;2024-02-15T04:48:11;4.50;99.90
23385;DHT22;11865;45.394;10.978;2024-02-15T04:50:42;4.80;99.90
23385;DHT22;11865;45.394;10.978;2024-02-15T04:53:10;4.50;99.90
23385;DHT22;11865;45.394;10.978;2024-02-15T04:55:38;4.20;99.90
23385;DHT22;11865;45.394;10.978;2024-02-15T04:58:06;3.90;99.90
23385;DHT22;11865;45.394;10.978;2024-02-15T05:00:33;3.80;99.90
23385;DHT22;11865;45.394;10.978;2024-02-15T05:03:01;3.80;99.90
23385;DHT22;11865;45.394;10.978;2024-02-15T05:05:29;3.50;99.90
23385;DHT22;11865;45.394;10.978;2024-02-15T05:07:57;3.40;99.90
23385;DHT22;11865;45.394;10.978;2024-02-15T05:10:24;3.40;99.90
23385;DHT22;11865;45.394;10.978;2024-02-15T05:12:53;3.50;99.90
23385;DHT22;11865;45.394;10.978;2024-02-15T05:15:21;3.50;99.90
23385;DHT22;11865;45.394;10.978;2024-02-15T05:17:52;3.50;99.90
23385;DHT22;11865;45.394;10.978;2024-02-15T05:20:21;3.50;99.90
23385;DHT22;11865;45.394;10.978;2024-02-15T05:22:49;3.40;99.90
23385;DHT22;11865;45.394;10.978;2024-02-15T05:25:19;3.40;99.90
23385;DHT22;11865;45.394;10.978;2024-02-15T05:27:53;3.40;99.90
23385;DHT22;11865;45.394;10.978;2024-02-15T05:30:23;3.30;99.90
23385;DHT22;11865;45.394;10.978;2024-02-15T05:32:51;3.30;99.90
23385;DHT22;11865;45.394;10.978;2024-02-15T05:35:22;3.20;99.90
23385;DHT22;11865;45.394;10.978;2024-02-15T05:37:50;3.20;99.90
23385;DHT22;11865;45.394;10.978;2024-02-15T05:40:20;3.20;99.90
23385;DHT22;11865;45.394;10.978;2024-02-15T05:42:48;3.20;99.90
23385;DHT22;11865;45.394;10.978;2024-02-15T05:47:54;3.10;99.90
23385;DHT22;11865;45.394;10.978;2024-02-15T05:50:23;3.00;99.90
23385;DHT22;11865;45.394;10.978;2024-02-15T05:52:52;3.30;99.90
23385;DHT22;11865;45.394;10.978;2024-02-15T05:55:22;3.20;99.90
23385;DHT22;11865;45.394;10.978;2024-02-15T05:57:49;3.10;99.90
23385;DHT22;11865;45.394;10.978;2024-02-15T06:00:18;3.10;99.90
23385;DHT22;11865;45.394;10.978;2024-02-15T06:02:50;3.10;99.90
23385;DHT22;11865;45.394;10.978;2024-02-15T06:05:19;3.00;99.90
23385;DHT22;11865;45.394;10.978;2024-02-15T06:07:47;3.00;99.90
23385;DHT22;11865;45.394;10.978;2024-02-15T06:10:16;2.90;99.90
23385;DHT22;11865;45.394;10.978;2024-02-15T06:12:43;2.90;99.90
23385;DHT22;11865;45.394;10.978;2024-02-15T06:15:11;3.00;99.90
23385;DHT22;11865;45.394;10.978;2024-02-15T06:17:44;3.10;99.90
23385;DHT22;11865;45.394;10.978;2024-02-15T06:20:13;3.00;99.90
23385;DHT22;11865;45.394;10.978;2024-02-15T06:22:41;3.00;99.90
23385;DHT22;11865;45.394;10.978;2024-02-15T06:25:10;3.10;99.90
23385;DHT22;11865;45.394;10.978;2024-02-15T06:27:38;3.10;99.90
23385;DHT22;11865;45.394;10.978;2024-02-15T06:30:09;3.10;99.90
23385;DHT22;11865;45.394;10.978;2024-02-15T06:32:57;3.60;99.90
23385;DHT22;11865;45.394;10.978;2024-02-15T06:35:43;4.10;99.90
23385;DHT22;11865;45.394;10.978;2024-02-15T06:38:30;4.10;99.90
23385;DHT22;11865;45.394;10.978;2024-02-15T06:41:16;3.80;99.90
23385;DHT22;11865;45.394;10.978;2024-02-15T06:43:48;3.70;99.90
23385;DHT22;11865;45.394;10.978;2024-02-15T06:46:16;3.70;99.90
23385;DHT22;11865;45.394;10.978;2024-02-15T06:48:43;3.80;99.90
23385;DHT22;11865;45.394;10.978;2024-02-15T06:51:15;3.80;99.90
23385;DHT22;11865;45.394;10.978;2024-02-15T06:53:43;3.90;99.90
23385;DHT22;11865;45.394;10.978;2024-02-15T06:56:11;4.00;99.90
23385;DHT22;11865;45.394;10.978;2024-02-15T06:58:40;4.20;99.90
23385;DHT22;11865;45.394;10.978;2024-02-15T07:01:09;4.30;99.90
23385;DHT22;11865;45.394;10.978;2024-02-15T07:03:36;4.50;99.90
23385;DHT22;11865;45.394;10.978;2024-02-15T07:06:04;4.50;99.90
23385;DHT22;11865;45.394;10.978;2024-02-15T07:08:33;4.60;99.90
23385;DHT22;11865;45.394;10.978;2024-02-15T07:11:01;4.80;99.90
23385;DHT22;11865;45.394;10.978;2024-02-15T07:13:31;5.10;99.90
23385;DHT22;11865;45.394;10.978;2024-02-15T07:15:59;5.10;99.90
23385;DHT22;11865;45.394;10.978;2024-02-15T07:18:27;5.10;99.90
23385;DHT22;11865;45.394;10.978;2024-02-15T07:20:56;5.20;99.90
23385;DHT22;11865;45.394;10.978;2024-02-15T07:23:28;5.30;99.90
23385;DHT22;11865;45.394;10.978;2024-02-15T07:25:56;5.20;99.90
23385;DHT22;11865;45.394;10.978;2024-02-15T07:28:23;5.60;99.90
23385;DHT22;11865;45.394;10.978;2024-02-15T07:30:54;5.90;99.90
23385;DHT22;11865;45.394;10.978;2024-02-15T07:33:22;6.20;99.90
23385;DHT22;11865;45.394;10.978;2024-02-15T07:35:51;6.50;99.90
23385;DHT22;11865;45.394;10.978;2024-02-15T07:38:19;6.60;99.90
23385;DHT22;11865;45.394;10.978;2024-02-15T07:40:50;6.40;99.90
23385;DHT22;11865;45.394;10.978;2024-02-15T07:43:18;6.40;99.90
23385;DHT22;11865;45.394;10.978;2024-02-15T07:45:45;6.50;99.90
23385;DHT22;11865;45.394;10.978;2024-02-15T07:48:15;6.50;99.90
23385;DHT22;11865;45.394;10.978;2024-02-15T07:50:43;6.70;99.90
23385;DHT22;11865;45.394;10.978;2024-02-15T07:53:12;7.20;99.90
23385;DHT22;11865;45.394;10.978;2024-02-15T07:55:41;7.50;99.90
23385;DHT22;11865;45.394;10.978;2024-02-15T07:58:09;7.80;99.90
23385;DHT22;11865;45.394;10.978;2024-02-15T08:00:37;7.90;99.90
23385;DHT22;11865;45.394;10.978;2024-02-15T08:03:06;8.10;99.90
23385;DHT22;11865;45.394;10.978;2024-02-15T08:05:35;8.10;99.90
23385;DHT22;11865;45.394;10.978;2024-02-15T08:08:04;8.20;99.90
23385;DHT22;11865;45.394;10.978;2024-02-15T08:10:32;8.20;99.90
23385;DHT22;11865;45.394;10.978;2024-02-15T08:13:01;8.30;99.90
23385;DHT22;11865;45.394;10.978;2024-02-15T08:15:28;8.40;99.90
23385;DHT22;11865;45.394;10.978;2024-02-15T08:17:56;8.50;99.90
23385;DHT22;11865;45.394;10.978;2024-02-15T08:20:24;8.60;99.90
23385;DHT22;11865;45.394;10.978;2024-02-15T08:22:51;8.70;99.90
23385;DHT22;11865;45.394;10.978;2024-02-15T08:25:19;8.60;99.90
23385;DHT22;11865;45.394;10.978;2024-02-15T08:27:47;8.80;99.90
23385;DHT22;11865;45.394;10.978;2024-02-15T08:30:17;9.00;99.90
23385;DHT22;11865;45.394;10.978;2024-02-15T08:32:51;9.00;99.90
23385;DHT22;11865;45.394;10.978;2024-02-15T08:35:21;9.20;99.90
23385;DHT22;11865;45.394;10.978;2024-02-15T08:37:49;9.20;99.90
23385;DHT22;11865;45.394;10.978;2024-02-15T08:40:19;9.10;99.90
23385;DHT22;11865;45.394;10.978;2024-02-15T08:42:52;9.30;99.90
23385;DHT22;11865;45.394;10.978;2024-02-15T08:45:20;9.60;99.90
23385;DHT22;11865;45.394;10.978;2024-02-15T08:47:48;9.50;99.90
23385;DHT22;11865;45.394;10.978;2024-02-15T08:50:20;9.60;99.90
23385;DHT22;11865;45.394;10.978;2024-02-15T08:52:51;9.70;99.90
23385;DHT22;11865;45.394;10.978;2024-02-15T08:55:18;9.50;99.90
23385;DHT22;11865;45.394;10.978;2024-02-15T08:57:48;9.40;99.90
23385;DHT22;11865;45.394;10.978;2024-02-15T09:00:15;9.40;99.90
23385;DHT22;11865;45.394;10.978;2024-02-15T09:02:45;9.30;99.90
23385;DHT22;11865;45.394;10.978;2024-02-15T09:05:13;9.40;99.90
23385;DHT22;11865;45.394;10.978;2024-02-15T09:07:46;9.40;99.90
23385;DHT22;11865;45.394;10.978;2024-02-15T09:10:18;9.50;99.90
23385;DHT22;11865;45.394;10.978;2024-02-15T09:12:46;9.60;99.90
23385;DHT22;11865;45.394;10.978;2024-02-15T09:15:17;9.80;99.90
23385;DHT22;11865;45.394;10.978;2024-02-15T09:17:45;9.80;99.90
23385;DHT22;11865;45.394;10.978;2024-02-15T09:20:15;9.90;99.90
23385;DHT22;11865;45.394;10.978;2024-02-15T09:22:50;10.20;99.90
23385;DHT22;11865;45.394;10.978;2024-02-15T09:25:18;10.20;99.90
23385;DHT22;11865;45.394;10.978;2024-02-15T09:27:46;10.10;99.90
23385;DHT22;11865;45.394;10.978;2024-02-15T09:30:14;10.00;99.90
23385;DHT22;11865;45.394;10.978;2024-02-15T09:32:44;10.00;99.90
23385;DHT22;11865;45.394;10.978;2024-02-15T09:35:12;10.30;99.90
23385;DHT22;11865;45.394;10.978;2024-02-15T09:37:48;10.30;99.90
23385;DHT22;11865;45.394;10.978;2024-02-15T09:40:18;10.50;99.90
23385;DHT22;11865;45.394;10.978;2024-02-15T09:42:47;10.60;99.90
23385;DHT22;11865;45.394;10.978;2024-02-15T09:45:15;10.40;99.90
23385;DHT22;11865;45.394;10.978;2024-02-15T09:47:45;10.50;99.90
23385;DHT22;11865;45.394;10.978;2024-02-15T09:50:14;10.50;99.90
23385;DHT22;11865;45.394;10.978;2024-02-15T09:55:14;10.70;99.90
23385;DHT22;11865;45.394;10.978;2024-02-15T09:57:43;10.60;99.90
23385;DHT22;11865;45.394;10.978;2024-02-15T10:00:11;10.60;99.90
23385;DHT22;11865;45.394;10.978;2024-02-15T10:02:44;10.70;99.90
23385;DHT22;11865;45.394;10.978;2024-02-15T10:05:12;11.00;99.90
23385;DHT22;11865;45.394;10.978;2024-02-15T10:07:41;11.20;99.90
23385;DHT22;11865;45.394;10.978;2024-02-15T10:12:44;11.20;99.90
23385;DHT22;11865;45.394;10.978;2024-02-15T10:15:39;11.10;99.90
23385;DHT22;11865;45.394;10.978;2024-02-15T10:18:09;11.20;99.90
23385;DHT22;11865;45.394;10.978;2024-02-15T10:20:39;11.50;99.90
23385;DHT22;11865;45.394;10.978;2024-02-15T10:23:13;11.50;99.90
23385;DHT22;11865;45.394;10.978;2024-02-15T10:25:45;11.60;99.90
23385;DHT22;11865;45.394;10.978;2024-02-15T10:28:21;11.50;99.90
23385;DHT22;11865;45.394;10.978;2024-02-15T10:30:51;11.70;99.90
23385;DHT22;11865;45.394;10.978;2024-02-15T10:33:26;11.70;99.90
23385;DHT22;11865;45.394;10.978;2024-02-15T10:36:08;11.90;99.90
23385;DHT22;11865;45.394;10.978;2024-02-15T10:38:37;11.90;99.90
23385;DHT22;11865;45.394;10.978;2024-02-15T10:41:06;11.80;99.90
23385;DHT22;11865;45.394;10.978;2024-02-15T10:43:36;11.90;99.90
23385;DHT22;11865;45.394;10.978;2024-02-15T10:46:08;12.00;99.90
23385;DHT22;11865;45.394;10.978;2024-02-15T10:48:38;12.10;99.90
23385;DHT22;11865;45.394;10.978;2024-02-15T10:51:13;12.00;99.90
23385;DHT22;11865;45.394;10.978;2024-02-15T10:53:47;12.20;99.90
23385;DHT22;11865;45.394;10.978;2024-02-15T10:56:27;12.40;99.90
23385;DHT22;11865;45.394;10.978;2024-02-15T11:01:43;12.20;99.90
23385;DHT22;11865;45.394;10.978;2024-02-15T11:04:15;12.20;99.90
23385;DHT22;11865;45.394;10.978;2024-02-15T11:06:50;12.50;99.90
23385;DHT22;11865;45.394;10.978;2024-02-15T11:09:18;12.50;99.90
23385;DHT22;11865;45.394;10.978;2024-02-15T11:11:47;12.50;99.90
23385;DHT22;11865;45.394;10.978;2024-02-15T11:14:31;12.70;99.90
23385;DHT22;11865;45.394;10.978;2024-02-15T11:17:00;12.40;99.90
23385;DHT22;11865;45.394;10.978;2024-02-15T11:24:46;12.60;99.90
23385;DHT22;11865;45.394;10.978;2024-02-15T11:27:27;12.50;99.90
23385;DHT22;11865;45.394;10.978;2024-02-15T11:29:56;12.40;99.90
23385;DHT22;11865;45.394;10.978;2024-02-15T11:35:19;12.60;99.90
23385;DHT22;11865;45.394;10.978;2024-02-15T11:37:49;12.70;99.90
23385;DHT22;11865;45.394;10.978;2024-02-15T11:40:25;12.60;99.90
23385;DHT22;11865;45.394;10.978;2024-02-15T11:45:22;12.70;99.90
23385;DHT22;11865;45.394;10.978;2024-02-15T11:47:52;12.60;99.90
23385;DHT22;11865;45.394;10.978;2024-02-15T11:50:22;12.70;99.90
23385;DHT22;11865;45.394;10.978;2024-02-15T11:52:51;12.90;99.90
23385;DHT22;11865;45.394;10.978;2024-02-15T11:55:20;12.90;99.80
23385;DHT22;11865;45.394;10.978;2024-02-15T11:57:59;13.20;99.40
23385;DHT22;11865;45.394;10.978;2024-02-15T12:00:32;12.90;98.90
23385;DHT22;11865;45.394;10.978;2024-02-15T12:03:19;13.10;99.20
23385;DHT22;11865;45.394;10.978;2024-02-15T12:06:08;13.00;99.40
23385;DHT22;11865;45.394;10.978;2024-02-15T12:08:54;13.10;99.40
23385;DHT22;11865;45.394;10.978;2024-02-15T12:11:41;13.10;99.90
23385;DHT22;11865;45.394;10.978;2024-02-15T12:14:27;13.00;99.90
23385;DHT22;11865;45.394;10.978;2024-02-15T12:17:13;13.10;99.90
23385;DHT22;11865;45.394;10.978;2024-02-15T12:20:02;13.20;99.40
23385;DHT22;11865;45.394;10.978;2024-02-15T12:22:42;13.30;99.70
23385;DHT22;11865;45.394;10.978;2024-02-15T12:25:17;13.40;99.20
23385;DHT22;11865;45.394;10.978;2024-02-15T12:27:59;13.40;98.90
23385;DHT22;11865;45.394;10.978;2024-02-15T12:30:33;13.50;99.90
23385;DHT22;11865;45.394;10.978;2024-02-15T12:33:11;13.40;99.40
23385;DHT22;11865;45.394;10.978;2024-02-15T12:35:41;13.40;99.90
23385;DHT22;11865;45.394;10.978;2024-02-15T12:38:12;13.50;99.80
23385;DHT22;11865;45.394;10.978;2024-02-15T12:40:45;13.60;99.30
23385;DHT22;11865;45.394;10.978;2024-02-15T12:43:15;13.60;99.80
23385;DHT22;11865;45.394;10.978;2024-02-15T12:45:43;13.60;99.90
23385;DHT22;11865;45.394;10.978;2024-02-15T12:48:12;13.60;99.90
23385;DHT22;11865;45.394;10.978;2024-02-15T12:50:42;13.60;99.90
23385;DHT22;11865;45.394;10.978;2024-02-15T12:53:10;13.70;99.90
23385;DHT22;11865;45.394;10.978;2024-02-15T12:55:39;13.80;99.90
23385;DHT22;11865;45.394;10.978;2024-02-15T12:58:13;13.70;99.30
23385;DHT22;11865;45.394;10.978;2024-02-15T13:00:43;13.70;98.20
23385;DHT22;11865;45.394;10.978;2024-02-15T13:03:11;13.80;98.40
23385;DHT22;11865;45.394;10.978;2024-02-15T13:05:41;13.70;98.50
23385;DHT22;11865;45.394;10.978;2024-02-15T13:08:09;13.70;98.50
23385;DHT22;11865;45.394;10.978;2024-02-15T13:10:45;13.70;99.90
23385;DHT22;11865;45.394;10.978;2024-02-15T13:13:13;13.60;99.90
23385;DHT22;11865;45.394;10.978;2024-02-15T13:15:44;13.60;98.50
23385;DHT22;11865;45.394;10.978;2024-02-15T13:18:13;13.70;99.40
23385;DHT22;11865;45.394;10.978;2024-02-15T13:20:42;13.90;99.80
23385;DHT22;11865;45.394;10.978;2024-02-15T13:23:11;14.00;99.40
23385;DHT22;11865;45.394;10.978;2024-02-15T13:25:53;14.10;98.60
23385;DHT22;11865;45.394;10.978;2024-02-15T13:28:24;14.10;97.90
23385;DHT22;11865;45.394;10.978;2024-02-15T13:30:52;14.10;97.40
23385;DHT22;11865;45.394;10.978;2024-02-15T13:33:22;14.20;97.40
23385;DHT22;11865;45.394;10.978;2024-02-15T13:35:50;14.10;98.60
23385;DHT22;11865;45.394;10.978;2024-02-15T13:38:17;13.90;99.00
23385;DHT22;11865;45.394;10.978;2024-02-15T13:40:51;14.00;98.80
23385;DHT22;11865;45.394;10.978;2024-02-15T13:43:22;14.00;97.80
23385;DHT22;11865;45.394;10.978;2024-02-15T13:45:51;14.20;97.40
23385;DHT22;11865;45.394;10.978;2024-02-15T13:48:19;14.20;97.70
23385;DHT22;11865;45.394;10.978;2024-02-15T13:50:46;14.30;97.20
23385;DHT22;11865;45.394;10.978;2024-02-15T13:53:14;14.20;97.80
23385;DHT22;11865;45.394;10.978;2024-02-15T13:55:42;14.30;98.00
23385;DHT22;11865;45.394;10.978;2024-02-15T13:58:10;14.40;98.90
23385;DHT22;11865;45.394;10.978;2024-02-15T14:00:41;14.10;98.40
23385;DHT22;11865;45.394;10.978;2024-02-15T14:03:11;14.10;99.70
23385;DHT22;11865;45.394;10.978;2024-02-15T14:05:40;14.10;99.30
23385;DHT22;11865;45.394;10.978;2024-02-15T14:08:10;14.30;98.80
23385;DHT22;11865;45.394;10.978;2024-02-15T14:10:38;14.30;97.90
23385;DHT22;11865;45.394;10.978;2024-02-15T14:13:06;14.30;97.40
23385;DHT22;11865;45.394;10.978;2024-02-15T14:15:35;14.40;97.90
23385;DHT22;11865;45.394;10.978;2024-02-15T14:18:08;14.40;98.90
23385;DHT22;11865;45.394;10.978;2024-02-15T14:20:45;14.50;99.30
23385;DHT22;11865;45.394;10.978;2024-02-15T14:23:15;14.40;99.60
23385;DHT22;11865;45.394;10.978;2024-02-15T14:25:43;14.40;99.90
23385;DHT22;11865;45.394;10.978;2024-02-15T14:28:15;14.40;99.80
23385;DHT22;11865;45.394;10.978;2024-02-15T14:30:43;14.40;99.40
23385;DHT22;11865;45.394;10.978;2024-02-15T14:33:29;14.40;99.90
23385;DHT22;11865;45.394;10.978;2024-02-15T14:36:00;14.60;99.10
23385;DHT22;11865;45.394;10.978;2024-02-15T14:38:28;14.30;99.90
23385;DHT22;11865;45.394;10.978;2024-02-15T14:40:56;14.20;99.90
23385;DHT22;11865;45.394;10.978;2024-02-15T14:43:26;14.20;99.90
23385;DHT22;11865;45.394;10.978;2024-02-15T14:45:55;14.20;99.90
23385;DHT22;11865;45.394;10.978;2024-02-15T14:48:25;14.10;99.90
23385;DHT22;11865;45.394;10.978;2024-02-15T14:50:53;14.10;99.90
23385;DHT22;11865;45.394;10.978;2024-02-15T14:53:24;14.10;99.60
23385;DHT22;11865;45.394;10.978;2024-02-15T14:55:51;14.30;99.50
23385;DHT22;11865;45.394;10.978;2024-02-15T14:58:20;14.30;99.20
23385;DHT22;11865;45.394;10.978;2024-02-15T15:00:50;14.50;99.10
23385;DHT22;11865;45.394;10.978;2024-02-15T15:03:18;14.50;99.90
23385;DHT22;11865;45.394;10.978;2024-02-15T15:05:47;14.50;99.30
23385;DHT22;11865;45.394;10.978;2024-02-15T15:08:33;14.50;99.40
23385;DHT22;11865;45.394;10.978;2024-02-15T15:11:19;14.50;99.30
23385;DHT22;11865;45.394;10.978;2024-02-15T15:14:05;14.50;99.40
23385;DHT22;11865;45.394;10.978;2024-02-15T15:16:33;14.20;98.90
23385;DHT22;11865;45.394;10.978;2024-02-15T15:19:02;14.40;99.20
23385;DHT22;11865;45.394;10.978;2024-02-15T15:21:31;14.50;98.70
23385;DHT22;11865;45.394;10.978;2024-02-15T15:23:59;14.40;98.80
23385;DHT22;11865;45.394;10.978;2024-02-15T15:26:27;14.30;99.50
23385;DHT22;11865;45.394;10.978;2024-02-15T15:28:54;14.40;99.10
23385;DHT22;11865;45.394;10.978;2024-02-15T15:31:24;14.30;99.10
23385;DHT22;11865;45.394;10.978;2024-02-15T15:33:53;14.20;99.60
23385;DHT22;11865;45.394;10.978;2024-02-15T15:36:23;14.20;99.40
23385;DHT22;11865;45.394;10.978;2024-02-15T15:38:51;14.20;99.70
23385;DHT22;11865;45.394;10.978;2024-02-15T15:41:19;14.20;99.60
23385;DHT22;11865;45.394;10.978;2024-02-15T15:43:50;14.10;99.90
23385;DHT22;11865;45.394;10.978;2024-02-15T15:46:18;14.00;99.60
23385;DHT22;11865;45.394;10.978;2024-02-15T15:48:46;14.10;99.70
23385;DHT22;11865;45.394;10.978;2024-02-15T15:51:14;14.00;99.90
23385;DHT22;11865;45.394;10.978;2024-02-15T15:53:43;14.00;99.90
23385;DHT22;11865;45.394;10.978;2024-02-15T15:56:15;13.90;99.90
23385;DHT22;11865;45.394;10.978;2024-02-15T15:58:44;13.80;99.90
23385;DHT22;11865;45.394;10.978;2024-02-15T16:01:13;13.70;99.90
23385;DHT22;11865;45.394;10.978;2024-02-15T16:03:42;13.70;99.90
23385;DHT22;11865;45.394;10.978;2024-02-15T16:06:10;13.70;99.90